Terminal Aerodrome Forecast
Issued by NWS

Home | Current Version | Previous Version | Graphics & Text | Print | Product List | Glossary On
Versions: 1 2 3 4 5 6 7 8 9 10 11 12 13 14
000
FTUS43 KBIS 292320
TAFDIK
TAF
KDIK 292320Z 3000/3024 30014G23KT P6SM FEW080
     FM300100 29007KT P6SM SKC
     FM300600 24006KT P6SM SKC
     FM301500 27011KT P6SM SKC=

USA.gov is the U.S. government's official web portal to all federal, state and local government web resources and services.